Time;durP1;ratioP1;P1;durP2;ratioP2;P2;SDS_P1;SDS_P2;PMS_P1;PMS_P2;Temp;Humidity;BMP_temperature;BMP_pressure;BME280_temperature;BME280_humidity;BME280_pressure;Samples;Min_cycle;Max_cycle;Signal;HPM_P1;HPM_P2
2022/01/27 00:05:33;;;;;;;7.32;0.50;;;29.20;91.40;;;;;;5050895;28;20036;-75
2022/01/27 00:07:36;;;;;;;4.68;0.93;;;28.90;91.40;;;;;;5045251;28;20040;-77
2022/01/27 00:12:32;;;;;;;2.13;0.20;;;28.90;92.00;;;;;;5052001;28;20047;-78
2022/01/27 00:15:11;;;;;;;4.82;0.30;;;29.20;91.80;;;;;;5056767;28;20112;-76
2022/01/27 00:17:55;;;;;;;2.72;0.30;;;29.10;90.40;;;;;;5052821;28;20128;-79
2022/01/27 00:20:23;;;;;;;1.25;0.20;;;28.80;90.70;;;;;;5053043;28;20111;-76
2022/01/27 00:22:50;;;;;;;3.17;0.57;;;29.30;91.70;;;;;;5054290;28;20039;-78
2022/01/27 00:25:17;;;;;;;1.65;0.32;;;29.70;90.50;;;;;;5055356;28;20027;-82
2022/01/27 00:27:45;;;;;;;1.20;0.10;;;30.10;90.20;;;;;;5055653;28;20054;-74
2022/01/27 00:30:13;;;;;;;2.75;0.20;;;30.70;89.30;;;;;;5054116;28;20483;-79
2022/01/27 00:32:40;;;;;;;3.10;0.57;;;30.40;90.20;;;;;;5054290;28;20487;-74
2022/01/27 00:35:11;;;;;;;2.03;0.43;;;30.00;90.40;;;;;;5049176;28;20021;-77
2022/01/27 00:37:39;;;;;;;2.15;0.28;;;29.50;90.40;;;;;;5052850;28;20650;-78
2022/01/27 00:40:11;;;;;;;4.10;0.63;;;29.10;91.10;;;;;;5046365;28;20035;-76
2022/01/27 00:42:42;;;;;;;3.95;0.60;;;28.80;91.00;;;;;;5056263;28;20057;-76
2022/01/27 00:45:11;;;;;;;1.35;0.22;;;28.50;92.40;;;;;;5050885;28;20028;-78
2022/01/27 00:47:38;;;;;;;3.13;0.57;;;28.60;92.10;;;;;;5048660;28;20135;-78
2022/01/27 00:50:06;;;;;;;3.38;0.40;;;29.20;91.30;;;;;;5054611;28;20808;-83
2022/01/27 00:52:44;;;;;;;1.35;0.30;;;29.80;90.20;;;;;;5056773;28;20060;-77
2022/01/27 00:55:13;;;;;;;2.55;0.20;;;29.90;90.50;;;;;;5066546;28;20067;-80
2022/01/27 01:00:40;;;;;;;1.25;0.40;;;29.70;90.00;;;;;;5066069;28;20040;-80
2022/01/27 01:03:23;;;;;;;2.35;0.30;;;29.40;90.10;;;;;;5057865;28;20515;-81
2022/01/27 01:09:32;;;;;;;2.03;0.50;;;29.20;90.70;;;;;;5057269;28;20071;-79
2022/01/27 01:16:47;;;;;;;1.85;0.40;;;29.50;90.80;;;;;;5057017;28;20044;-77
2022/01/27 01:30:20;;;;;;;3.00;0.22;;;29.90;90.10;;;;;;5053846;28;20557;-75
2022/01/27 01:32:57;;;;;;;1.08;0.52;;;30.20;89.30;;;;;;5057947;28;20025;-76
2022/01/27 01:35:35;;;;;;;2.08;0.22;;;30.40;89.90;;;;;;5060166;28;20078;-76
2022/01/27 01:38:03;;;;;;;1.98;0.35;;;30.70;89.50;;;;;;5058310;28;20048;-75
2022/01/27 01:40:31;;;;;;;1.58;0.32;;;31.20;88.60;;;;;;5058655;28;20174;-75
2022/01/27 01:42:58;;;;;;;1.90;0.20;;;31.20;87.90;;;;;;5053772;28;20051;-77
2022/01/27 01:45:26;;;;;;;3.40;0.50;;;31.00;87.50;;;;;;5052278;28;20021;-75
2022/01/27 01:47:54;;;;;;;5.70;0.95;;;30.40;88.40;;;;;;5050117;28;20119;-75
2022/01/27 01:50:22;;;;;;;3.70;1.08;;;30.20;89.00;;;;;;5058177;28;20025;-76
2022/01/27 01:52:52;;;;;;;2.55;0.60;;;30.10;89.80;;;;;;5052069;28;20029;-75
2022/01/27 01:55:19;;;;;;;2.40;0.60;;;30.20;90.20;;;;;;5049054;28;20505;-75
2022/01/27 01:57:47;;;;;;;2.65;0.70;;;30.30;89.60;;;;;;5061040;28;20062;-76
2022/01/27 02:00:15;;;;;;;2.03;0.60;;;30.40;89.10;;;;;;5062456;28;20379;-75
2022/01/27 02:02:42;;;;;;;3.97;0.50;;;30.30;89.00;;;;;;5055903;28;20052;-76
2022/01/27 02:05:10;;;;;;;6.30;0.70;;;30.40;89.50;;;;;;5060763;28;20036;-75
2022/01/27 02:07:57;;;;;;;6.10;0.50;;;30.50;88.60;;;;;;5066766;28;20688;-76
2022/01/27 02:18:40;;;;;;;5.40;0.90;;;30.50;89.70;;;;;;5054168;28;20048;-76
2022/01/27 02:21:08;;;;;;;4.63;1.20;;;30.60;88.40;;;;;;5049341;28;20029;-75
2022/01/27 02:23:35;;;;;;;2.20;0.82;;;30.60;88.30;;;;;;5056216;28;20033;-79
2022/01/27 02:26:03;;;;;;;4.63;0.60;;;30.40;87.70;;;;;;5062403;28;20637;-76
2022/01/27 02:28:30;;;;;;;1.65;0.68;;;30.20;89.70;;;;;;5050776;28;20047;-77
2022/01/27 02:30:57;;;;;;;2.00;0.73;;;30.20;89.40;;;;;;5051684;28;20095;-75
2022/01/27 02:33:32;;;;;;;1.95;0.82;;;30.30;88.40;;;;;;5052433;28;20051;-77
2022/01/27 02:35:59;;;;;;;1.55;0.35;;;30.70;88.50;;;;;;5049400;28;20387;-74
2022/01/27 02:38:27;;;;;;;1.45;0.63;;;30.80;87.70;;;;;;5056435;28;20029;-76
2022/01/27 02:41:03;;;;;;;3.47;0.40;;;31.00;88.20;;;;;;5048893;28;20495;-76
2022/01/27 02:43:30;;;;;;;1.20;0.40;;;31.10;87.60;;;;;;5054261;28;20502;-78
2022/01/27 02:46:06;;;;;;;1.60;0.70;;;31.00;86.80;;;;;;5061201;28;20029;-75
2022/01/27 02:48:34;;;;;;;1.10;0.50;;;30.70;87.00;;;;;;5055575;28;20025;-75
2022/01/27 02:51:01;;;;;;;4.40;0.30;;;30.20;87.00;;;;;;5057301;28;20383;-75
2022/01/27 02:53:28;;;;;;;2.92;0.52;;;30.00;88.20;;;;;;5059973;28;20033;-78
2022/01/27 02:55:56;;;;;;;4.30;1.35;;;30.00;89.20;;;;;;5055880;28;20158;-76
2022/01/27 02:58:23;;;;;;;0.98;0.45;;;30.30;88.60;;;;;;5054138;28;20024;-76
2022/01/27 03:00:50;;;;;;;2.15;0.50;;;30.30;88.80;;;;;;5057963;28;20560;-79
2022/01/27 03:03:18;;;;;;;2.83;0.30;;;30.00;90.40;;;;;;5059085;28;20036;-76
2022/01/27 03:05:45;;;;;;;2.25;0.30;;;29.70;90.20;;;;;;5064197;28;20021;-76
2022/01/27 03:08:13;;;;;;;2.88;0.70;;;29.50;90.40;;;;;;5055967;28;20047;-77
2022/01/27 03:10:48;;;;;;;1.38;0.52;;;29.40;90.50;;;;;;5058692;28;20535;-78
2022/01/27 03:13:16;;;;;;;3.25;0.50;;;29.40;90.30;;;;;;5064035;28;20112;-75
2022/01/27 03:15:43;;;;;;;1.95;0.45;;;29.20;90.70;;;;;;5068815;28;20024;-75
2022/01/27 03:18:10;;;;;;;1.35;0.32;;;29.50;90.40;;;;;;5066200;28;20021;-76
2022/01/27 03:20:39;;;;;;;5.70;0.60;;;29.50;90.70;;;;;;5070640;28;20463;-76
2022/01/27 03:23:07;;;;;;;2.22;0.70;;;29.30;90.70;;;;;;5063521;28;20478;-77
2022/01/27 03:25:34;;;;;;;3.40;1.02;;;29.10;90.80;;;;;;5062553;28;20540;-77
2022/01/27 03:28:02;;;;;;;1.52;0.43;;;29.00;91.00;;;;;;5062475;28;20033;-76
2022/01/27 03:30:29;;;;;;;3.72;0.70;;;29.00;90.90;;;;;;5057980;28;20156;-73
2022/01/27 03:32:57;;;;;;;3.38;0.73;;;29.00;90.80;;;;;;5064397;28;20509;-74
2022/01/27 03:35:24;;;;;;;2.83;0.90;;;28.90;91.40;;;;;;5060206;28;20029;-76
2022/01/27 03:37:51;;;;;;;1.02;0.77;;;28.80;91.70;;;;;;5053907;28;20438;-77
2022/01/27 03:40:19;;;;;;;1.92;0.80;;;28.80;91.50;;;;;;5055735;28;20063;-77
2022/01/27 03:42:54;;;;;;;7.53;1.90;;;29.00;91.80;;;;;;5055614;28;20136;-76
2022/01/27 03:45:22;;;;;;;1.20;0.63;;;29.10;91.30;;;;;;5050882;28;20033;-75
2022/01/27 03:47:49;;;;;;;3.42;1.30;;;29.10;91.20;;;;;;5059815;28;20044;-76
2022/01/27 03:50:16;;;;;;;2.38;0.80;;;29.10;91.30;;;;;;5054243;28;20024;-75
2022/01/27 03:52:44;;;;;;;1.60;1.50;;;29.00;91.40;;;;;;5060614;28;20483;-76
2022/01/27 03:55:11;;;;;;;3.03;1.20;;;28.80;91.70;;;;;;5056391;28;20028;-75
2022/01/27 03:57:39;;;;;;;4.47;1.40;;;28.70;91.80;;;;;;5056130;28;20029;-74
2022/01/27 04:00:14;;;;;;;4.55;1.63;;;28.50;92.00;;;;;;5067290;28;20070;-74
2022/01/27 04:02:53;;;;;;;4.32;1.33;;;28.40;92.20;;;;;;5060436;28;20333;-76
2022/01/27 04:05:21;;;;;;;3.35;1.10;;;28.60;92.20;;;;;;5063411;28;20395;-72
2022/01/27 04:07:50;;;;;;;2.63;1.00;;;28.60;92.40;;;;;;5054937;28;20120;-74
2022/01/27 04:10:17;;;;;;;2.20;0.80;;;28.40;92.50;;;;;;5056457;28;20043;-75
2022/01/27 04:12:44;;;;;;;2.60;1.10;;;28.40;92.70;;;;;;5058422;28;20182;-75
2022/01/27 04:15:12;;;;;;;2.15;1.38;;;28.30;92.80;;;;;;5052613;28;20024;-75
2022/01/27 04:17:39;;;;;;;4.93;1.48;;;28.40;92.80;;;;;;5061237;28;20037;-74
2022/01/27 04:20:07;;;;;;;4.63;1.40;;;28.20;93.10;;;;;;5066429;28;20043;-76
2022/01/27 04:22:34;;;;;;;3.28;1.00;;;28.10;93.20;;;;;;5062437;28;20120;-76
2022/01/27 04:25:01;;;;;;;2.50;0.90;;;28.10;93.00;;;;;;5063273;28;20025;-74
2022/01/27 04:27:32;;;;;;;3.85;1.35;;;27.90;93.40;;;;;;5065919;28;20067;-75
2022/01/27 04:30:02;;;;;;;2.67;1.20;;;27.90;93.10;;;;;;5062298;28;20029;-77
2022/01/27 04:32:35;;;;;;;2.97;1.15;;;27.80;93.50;;;;;;5065395;28;20082;-77
2022/01/27 04:35:05;;;;;;;3.95;1.52;;;27.80;93.40;;;;;;5062819;28;20036;-77
2022/01/27 04:37:38;;;;;;;5.82;2.35;;;27.90;93.50;;;;;;5061183;28;20033;-77
2022/01/27 04:40:13;;;;;;;3.88;0.93;;;28.10;93.40;;;;;;5060359;28;20059;-76
2022/01/27 04:43:01;;;;;;;8.18;1.52;;;28.00;92.90;;;;;;5052344;28;20049;-75
2022/01/27 04:45:36;;;;;;;2.78;1.88;;;27.90;92.90;;;;;;5063112;28;20052;-75
2022/01/27 04:48:12;;;;;;;3.72;1.40;;;27.80;93.30;;;;;;5057645;28;20044;-75
2022/01/27 04:50:40;;;;;;;3.53;1.02;;;27.80;93.40;;;;;;5060704;28;20037;-74
2022/01/27 04:53:13;;;;;;;4.13;1.10;;;27.90;93.10;;;;;;5050809;28;20029;-74
2022/01/27 04:55:41;;;;;;;3.30;1.27;;;28.00;93.10;;;;;;5051108;28;20051;-75
2022/01/27 04:58:15;;;;;;;2.38;0.80;;;28.20;92.90;;;;;;5063787;28;20038;-74
2022/01/27 05:00:43;;;;;;;2.85;1.60;;;28.10;92.60;;;;;;5060924;28;20035;-74
2022/01/27 05:03:23;;;;;;;1.95;1.45;;;28.10;92.60;;;;;;5057768;28;20482;-73
2022/01/27 05:06:01;;;;;;;4.20;1.73;;;28.20;93.00;;;;;;5055422;28;20079;-73
2022/01/27 05:08:28;;;;;;;2.47;1.55;;;28.30;92.70;;;;;;5062608;28;20440;-75
2022/01/27 05:11:45;;;;;;;3.22;2.20;;;28.30;92.60;;;;;;5050518;28;20514;-75
2022/01/27 05:14:27;;;;;;;4.63;1.38;;;28.40;93.00;;;;;;5046148;28;20110;-75
2022/01/27 05:16:36;;;;;;;2.10;0.95;;;28.50;92.80;;;;;;5048130;28;20056;-73
2022/01/27 05:19:04;;;;;;;4.93;1.42;;;28.40;93.30;;;;;;5049102;28;20071;-77
2022/01/27 05:21:37;;;;;;;3.13;0.77;;;28.00;93.80;;;;;;5056135;28;20068;-77
2022/01/27 05:24:05;;;;;;;3.30;1.00;;;27.70;94.10;;;;;;5048232;28;20423;-76
2022/01/27 05:26:35;;;;;;;2.88;1.00;;;27.50;94.40;;;;;;5049820;28;20017;-79
2022/01/27 05:29:10;;;;;;;4.35;0.70;;;27.40;94.60;;;;;;5050915;28;20406;-77
2022/01/27 05:31:38;;;;;;;3.10;0.80;;;27.40;94.40;;;;;;5055782;28;20138;-77
2022/01/27 05:34:06;;;;;;;2.42;1.00;;;27.30;94.80;;;;;;5050267;28;20083;-78
2022/01/27 05:36:34;;;;;;;2.92;1.02;;;27.40;95.00;;;;;;5051020;28;20029;-77
2022/01/27 05:39:03;;;;;;;2.25;0.88;;;27.40;94.90;;;;;;5048881;28;20033;-78
2022/01/27 05:41:31;;;;;;;4.53;0.80;;;27.40;94.80;;;;;;5047790;28;20342;-76
2022/01/27 05:43:58;;;;;;;3.15;0.80;;;27.20;95.10;;;;;;5048657;28;20040;-78
2022/01/27 05:46:26;;;;;;;3.30;0.80;;;27.00;95.20;;;;;;5052914;28;20140;-78
2022/01/27 05:48:53;;;;;;;3.13;1.27;;;27.00;95.50;;;;;;5057445;28;20048;-78
2022/01/27 05:51:21;;;;;;;2.40;0.80;;;27.10;95.40;;;;;;5052120;28;20382;-75
2022/01/27 05:53:48;;;;;;;3.90;0.80;;;27.10;95.40;;;;;;5055422;28;20082;-77
2022/01/27 05:56:16;;;;;;;1.60;0.63;;;27.10;95.70;;;;;;5066583;28;20028;-78
2022/01/27 05:58:43;;;;;;;1.85;1.20;;;27.00;95.70;;;;;;5049405;28;20040;-78
2022/01/27 06:01:11;;;;;;;3.22;1.63;;;27.00;95.80;;;;;;5050976;28;20017;-77
2022/01/27 06:03:39;;;;;;;5.93;1.30;;;27.10;95.80;;;;;;5058564;28;20032;-77
2022/01/27 06:06:06;;;;;;;3.60;1.45;;;27.00;95.70;;;;;;5052154;28;20138;-76
2022/01/27 06:08:34;;;;;;;5.35;0.85;;;27.10;95.70;;;;;;5061976;28;20455;-75
2022/01/27 06:11:01;;;;;;;3.67;0.80;;;27.00;95.70;;;;;;5064933;28;20491;-75
2022/01/27 06:13:29;;;;;;;2.75;0.65;;;27.00;95.60;;;;;;5064976;28;20462;-76
2022/01/27 06:15:56;;;;;;;5.40;1.05;;;27.00;95.70;;;;;;5068345;28;20025;-75
2022/01/27 06:18:23;;;;;;;2.70;0.90;;;26.90;95.90;;;;;;5063552;28;20052;-76
2022/01/27 06:20:51;;;;;;;4.20;1.23;;;26.90;96.10;;;;;;5068058;28;20094;-75
2022/01/27 06:23:18;;;;;;;3.90;1.15;;;26.90;96.30;;;;;;5064974;28;20514;-76
2022/01/27 06:25:46;;;;;;;2.88;0.80;;;26.90;96.00;;;;;;5062258;28;20032;-76
2022/01/27 06:28:13;;;;;;;2.75;1.02;;;27.00;96.10;;;;;;5058136;28;20380;-80
2022/01/27 06:30:40;;;;;;;4.90;1.00;;;27.00;96.00;;;;;;5064166;28;20016;-78
2022/01/27 06:33:08;;;;;;;1.80;0.65;;;27.10;95.90;;;;;;5066275;28;20044;-78
2022/01/27 06:35:35;;;;;;;3.50;0.77;;;27.00;96.00;;;;;;5064771;28;20024;-77
2022/01/27 06:38:04;;;;;;;3.25;1.65;;;26.90;96.20;;;;;;5057567;28;20048;-75
2022/01/27 06:40:31;;;;;;;9.40;2.58;;;27.00;96.00;;;;;;5059995;28;20078;-78
2022/01/27 06:42:58;;;;;;;3.33;0.63;;;27.00;96.20;;;;;;5063827;28;20139;-78
2022/01/27 06:45:26;;;;;;;1.95;0.68;;;27.00;95.80;;;;;;5067271;28;20032;-81
2022/01/27 06:47:53;;;;;;;2.58;0.85;;;26.90;95.90;;;;;;5066493;28;20380;-79
2022/01/27 06:50:20;;;;;;;6.43;0.80;;;26.80;96.10;;;;;;5056350;28;20047;-77
2022/01/27 06:52:48;;;;;;;4.63;1.17;;;26.90;96.20;;;;;;5055657;28;20035;-79
2022/01/27 06:55:17;;;;;;;2.00;0.77;;;26.80;96.10;;;;;;5057431;28;20035;-78
2022/01/27 06:57:46;;;;;;;3.05;0.90;;;26.90;96.00;;;;;;5054323;28;20475;-76
2022/01/27 07:00:14;;;;;;;3.08;0.93;;;26.90;96.10;;;;;;5070026;28;20115;-77
2022/01/27 07:02:42;;;;;;;2.75;0.95;;;26.80;96.30;;;;;;5060509;28;20051;-80
2022/01/27 07:05:14;;;;;;;2.63;0.60;;;26.90;96.30;;;;;;5064331;28;20107;-77
2022/01/27 07:07:42;;;;;;;3.13;0.63;;;26.80;96.20;;;;;;5061785;28;20048;-76
2022/01/27 07:10:09;;;;;;;5.38;1.15;;;26.80;96.30;;;;;;5070264;28;20059;-82
2022/01/27 07:12:43;;;;;;;5.45;1.25;;;26.70;96.30;;;;;;5056613;28;20067;-79
2022/01/27 07:15:11;;;;;;;3.63;0.80;;;26.70;96.40;;;;;;5056852;28;20107;-79
2022/01/27 07:17:40;;;;;;;5.53;0.88;;;26.80;96.50;;;;;;5069486;28;20031;-78
2022/01/27 07:20:08;;;;;;;3.72;0.93;;;26.80;96.50;;;;;;5052837;28;20029;-79
2022/01/27 07:22:37;;;;;;;4.30;0.88;;;26.80;96.60;;;;;;5063648;28;20028;-78
2022/01/27 07:25:06;;;;;;;2.47;0.80;;;26.70;96.60;;;;;;5070092;28;20024;-78
2022/01/27 07:27:35;;;;;;;5.10;0.47;;;26.60;96.80;;;;;;5071570;28;20473;-79
2022/01/27 07:30:04;;;;;;;1.40;0.40;;;26.60;97.00;;;;;;5064535;28;20059;-78
2022/01/27 07:32:31;;;;;;;1.88;1.10;;;26.60;96.90;;;;;;5064994;28;20059;-78
2022/01/27 07:34:59;;;;;;;4.38;0.60;;;26.60;97.00;;;;;;5062284;28;20028;-79
2022/01/27 07:37:26;;;;;;;2.70;0.63;;;26.50;97.10;;;;;;5071310;28;20041;-78
2022/01/27 07:39:54;;;;;;;3.75;0.60;;;26.40;97.20;;;;;;5053824;28;20031;-77
2022/01/27 07:42:21;;;;;;;2.25;0.55;;;26.40;97.40;;;;;;5063721;28;20040;-77
2022/01/27 07:44:48;;;;;;;2.95;1.13;;;26.30;97.50;;;;;;5058786;28;20081;-77
2022/01/27 07:47:16;;;;;;;5.18;1.42;;;26.20;97.50;;;;;;5055109;28;20044;-78
2022/01/27 07:49:43;;;;;;;0.93;0.40;;;26.20;97.50;;;;;;5072359;28;20033;-77
2022/01/27 07:52:10;;;;;;;3.10;0.43;;;26.10;97.60;;;;;;5070389;28;20036;-79
2022/01/27 07:54:38;;;;;;;2.10;1.13;;;26.10;98.00;;;;;;5059827;28;20029;-81
2022/01/27 07:57:05;;;;;;;3.03;0.73;;;26.00;97.80;;;;;;5065197;28;20040;-79
2022/01/27 07:59:32;;;;;;;6.28;0.93;;;26.00;97.80;;;;;;5064286;28;20067;-83
2022/01/27 08:02:01;;;;;;;2.13;0.40;;;26.00;98.00;;;;;;5053989;28;20106;-77
2022/01/27 08:04:28;;;;;;;4.07;0.75;;;25.90;97.90;;;;;;5059796;28;20028;-83
2022/01/27 08:06:56;;;;;;;4.22;1.02;;;25.90;97.90;;;;;;5057092;28;20371;-79
2022/01/27 08:09:24;;;;;;;1.35;0.47;;;25.90;98.10;;;;;;5064367;28;20033;-77
2022/01/27 08:11:51;;;;;;;4.50;0.60;;;25.80;98.20;;;;;;5052993;28;20090;-76
2022/01/27 08:14:19;;;;;;;4.43;0.55;;;25.80;98.20;;;;;;5061501;28;20094;-77
2022/01/27 08:16:46;;;;;;;8.25;0.85;;;25.80;98.20;;;;;;5067964;28;20029;-81
2022/01/27 08:19:13;;;;;;;3.28;0.50;;;25.70;98.30;;;;;;5056155;28;20094;-75
2022/01/27 08:21:41;;;;;;;3.55;0.77;;;25.70;98.30;;;;;;5058263;28;20541;-87
2022/01/27 08:24:08;;;;;;;2.30;0.57;;;25.60;98.30;;;;;;5055772;28;20033;-84
2022/01/27 08:26:40;;;;;;;4.35;0.50;;;25.60;98.60;;;;;;5063629;28;20036;-80
2022/01/27 08:29:14;;;;;;;2.40;0.70;;;25.70;98.50;;;;;;5070037;28;20035;-83
2022/01/27 08:34:30;;;;;;;3.20;0.95;;;25.60;98.50;;;;;;5064358;28;20048;-83
2022/01/27 08:36:59;;;;;;;6.28;0.50;;;25.50;98.40;;;;;;5055727;28;20051;-79
2022/01/27 08:39:27;;;;;;;2.70;0.57;;;25.50;98.40;;;;;;5070510;28;20029;-86
2022/01/27 08:41:55;;;;;;;4.70;0.90;;;25.50;98.30;;;;;;5056244;28;20106;-76
2022/01/27 08:44:23;;;;;;;2.35;0.30;;;25.40;98.20;;;;;;5060618;28;20107;-82
2022/01/27 08:46:50;;;;;;;4.07;0.60;;;25.40;98.20;;;;;;5068845;28;20067;-79
2022/01/27 08:49:21;;;;;;;2.10;0.40;;;25.40;98.30;;;;;;5069127;28;20024;-77
2022/01/27 08:51:51;;;;;;;2.78;0.40;;;25.30;98.50;;;;;;5054852;28;20055;-80
2022/01/27 08:54:18;;;;;;;1.65;0.50;;;25.30;98.30;;;;;;5054023;28;20067;-79
2022/01/27 08:56:46;;;;;;;2.83;0.40;;;25.30;98.40;;;;;;5060255;28;20043;-79
2022/01/27 08:59:14;;;;;;;1.65;0.45;;;25.20;98.30;;;;;;5065785;28;20024;-79
2022/01/27 09:01:42;;;;;;;3.97;1.15;;;25.20;98.30;;;;;;5066813;28;20033;-78
2022/01/27 09:04:09;;;;;;;3.28;0.77;;;25.20;98.50;;;;;;5065075;28;20043;-81
2022/01/27 09:06:38;;;;;;;1.90;0.80;;;25.20;98.60;;;;;;5069796;28;20107;-81
2022/01/27 09:09:05;;;;;;;3.40;0.40;;;25.10;98.60;;;;;;5065009;28;20046;-79
2022/01/27 09:11:34;;;;;;;1.95;0.40;;;25.10;98.60;;;;;;5058391;28;20029;-79
2022/01/27 09:14:03;;;;;;;5.55;1.30;;;25.10;98.70;;;;;;5067637;28;20051;-80
2022/01/27 09:16:31;;;;;;;1.33;0.50;;;25.10;98.80;;;;;;5053159;28;20071;-78
2022/01/27 09:19:01;;;;;;;4.55;0.50;;;25.00;98.80;;;;;;5056281;28;20048;-80
2022/01/27 09:21:43;;;;;;;1.40;0.40;;;25.00;98.90;;;;;;5053524;28;20100;-81
2022/01/27 09:24:15;;;;;;;1.27;0.30;;;24.90;99.10;;;;;;5056159;28;20372;-80
2022/01/27 09:29:15;;;;;;;1.25;1.15;;;24.90;98.90;;;;;;5058796;28;20041;-79
2022/01/27 09:31:43;;;;;;;3.65;0.70;;;24.90;99.00;;;;;;5070066;28;20025;-81
2022/01/27 09:34:10;;;;;;;1.90;0.60;;;24.90;99.10;;;;;;5057151;28;20154;-80
2022/01/27 09:36:38;;;;;;;5.22;0.93;;;24.80;99.10;;;;;;5054306;28;20035;-76
2022/01/27 09:39:05;;;;;;;5.28;0.47;;;24.70;99.10;;;;;;5067219;28;20032;-82
2022/01/27 09:41:38;;;;;;;5.10;0.55;;;24.70;99.20;;;;;;5062884;28;20036;-78
2022/01/27 09:44:11;;;;;;;3.72;0.50;;;24.70;99.30;;;;;;5062604;28;20441;-76
2022/01/27 09:46:45;;;;;;;2.83;0.45;;;24.70;99.30;;;;;;5055157;28;20041;-78
2022/01/27 09:49:15;;;;;;;2.33;0.50;;;24.70;99.40;;;;;;5066294;28;20029;-80
2022/01/27 09:51:45;;;;;;;5.82;1.23;;;24.70;99.50;;;;;;5055462;28;20033;-81
2022/01/27 09:54:17;;;;;;;2.17;0.55;;;24.70;99.50;;;;;;5061895;28;20029;-80
2022/01/27 09:56:45;;;;;;;1.88;0.68;;;24.70;99.50;;;;;;5053274;28;20491;-77
2022/01/27 09:59:12;;;;;;;4.07;1.33;;;24.70;99.50;;;;;;5054238;28;20450;-78
2022/01/27 10:01:54;;;;;;;1.75;0.50;;;24.60;99.60;;;;;;5061962;28;20032;-79
2022/01/27 10:04:23;;;;;;;5.78;1.20;;;24.50;99.70;;;;;;5055424;28;20047;-83
2022/01/27 10:06:58;;;;;;;2.05;0.45;;;24.50;99.80;;;;;;5058888;28;20339;-82
2022/01/27 10:09:30;;;;;;;1.65;0.50;;;24.50;99.80;;;;;;5060123;28;20044;-78
2022/01/27 10:12:03;;;;;;;6.35;1.60;;;24.50;99.90;;;;;;5061764;28;20029;-85
2022/01/27 10:14:38;;;;;;;2.17;0.43;;;24.50;99.90;;;;;;5070816;28;20550;-80
2022/01/27 10:17:13;;;;;;;2.10;0.32;;;24.50;99.90;;;;;;5064965;28;20036;-79
2022/01/27 10:19:41;;;;;;;2.15;0.38;;;24.40;99.90;;;;;;5070688;28;20084;-79
2022/01/27 10:22:15;;;;;;;0.93;0.40;;;24.50;99.90;;;;;;5064122;28;20028;-86
2022/01/27 10:24:44;;;;;;;2.55;1.02;;;24.40;99.90;;;;;;5072181;28;20411;-82
2022/01/27 10:27:34;;;;;;;3.50;0.93;;;24.50;99.90;;;;;;5071637;28;20028;-82
2022/01/27 10:30:35;;;;;;;6.15;0.60;;;24.40;99.90;;;;;;5064440;28;20025;-76
2022/01/27 10:32:55;;;;;;;4.60;0.43;;;24.40;99.90;;;;;;5061127;28;20025;-76
2022/01/27 10:35:25;;;;;;;3.10;0.50;;;24.40;99.90;;;;;;5064280;28;20067;-77
2022/01/27 10:38:12;;;;;;;1.95;0.40;;;24.40;99.90;;;;;;5067855;28;20032;-77
2022/01/27 10:40:47;;;;;;;3.13;0.38;;;24.50;99.90;;;;;;5071700;28;20056;-75
2022/01/27 10:43:17;;;;;;;1.00;0.30;;;24.40;99.90;;;;;;5069199;28;20044;-75
2022/01/27 10:46:10;;;;;;;6.18;1.20;;;24.40;99.90;;;;;;5064116;28;20029;-76
2022/01/27 10:48:49;;;;;;;4.00;0.90;;;24.40;99.90;;;;;;5058082;28;20033;-74
2022/01/27 10:51:26;;;;;;;3.65;1.27;;;24.40;99.90;;;;;;5058600;28;20078;-82
2022/01/27 10:54:08;;;;;;;1.88;0.50;;;24.40;99.90;;;;;;5053535;28;20036;-74
2022/01/27 10:56:38;;;;;;;3.15;0.40;;;24.40;99.90;;;;;;5055027;28;20032;-84
2022/01/27 10:59:10;;;;;;;4.95;0.57;;;24.30;99.90;;;;;;5055286;28;20040;-79
2022/01/27 11:01:44;;;;;;;8.05;2.10;;;24.30;99.90;;;;;;5057502;28;20028;-80
2022/01/27 11:04:14;;;;;;;9.15;1.05;;;24.30;99.90;;;;;;5066976;28;20043;-77
2022/01/27 11:06:57;;;;;;;3.78;0.38;;;24.30;99.90;;;;;;5061910;28;20095;-75
2022/01/27 11:09:26;;;;;;;4.45;0.60;;;24.30;99.90;;;;;;5071262;28;20037;-78
2022/01/27 11:11:55;;;;;;;2.90;0.75;;;24.30;99.90;;;;;;5067886;28;20354;-84
2022/01/27 11:14:25;;;;;;;4.60;0.50;;;24.30;99.90;;;;;;5072124;28;20115;-78
2022/01/27 11:16:58;;;;;;;4.30;0.80;;;24.30;99.90;;;;;;5063188;28;20112;-82
2022/01/27 11:19:56;;;;;;;3.88;0.40;;;24.40;99.90;;;;;;5065181;28;20035;-81
2022/01/27 11:25:50;;;;;;;4.10;0.30;;;24.30;99.90;;;;;;5062385;28;20028;-75
2022/01/27 11:28:04;;;;;;;6.38;0.50;;;24.30;99.90;;;;;;5066485;28;20041;-76
2022/01/27 11:30:51;;;;;;;4.55;0.60;;;24.30;99.90;;;;;;5056435;28;20173;-74
2022/01/27 11:33:19;;;;;;;7.07;1.05;;;24.30;99.90;;;;;;5064658;28;20448;-77
2022/01/27 11:35:47;;;;;;;1.88;0.40;;;24.30;99.90;;;;;;5054623;28;20036;-81
2022/01/27 11:38:24;;;;;;;2.78;0.50;;;24.30;99.90;;;;;;5056339;28;20025;-79
2022/01/27 11:40:52;;;;;;;3.05;0.40;;;24.30;99.90;;;;;;5057723;28;20036;-82
2022/01/27 11:43:26;;;;;;;2.90;0.93;;;24.30;99.90;;;;;;5072446;28;20017;-76
2022/01/27 11:45:53;;;;;;;1.67;0.38;;;24.30;99.90;;;;;;5063604;28;20078;-75
2022/01/27 11:48:25;;;;;;;0.52;0.30;;;24.30;99.90;;;;;;5066313;28;20459;-77
2022/01/27 11:51:13;;;;;;;1.33;0.30;;;24.30;99.90;;;;;;5059072;28;20035;-83
2022/01/27 11:53:50;;;;;;;3.28;0.35;;;24.30;99.90;;;;;;5058093;28;20028;-84
2022/01/27 11:56:27;;;;;;;2.15;0.40;;;24.30;99.90;;;;;;5059350;28;20086;-77
2022/01/27 11:58:55;;;;;;;5.88;0.32;;;24.30;99.90;;;;;;5052560;28;20112;-84
2022/01/27 12:01:27;;;;;;;1.55;0.40;;;24.30;99.90;;;;;;5057187;28;20035;-78
2022/01/27 12:04:07;;;;;;;1.58;0.40;;;24.30;99.90;;;;;;5060944;28;20028;-80
2022/01/27 12:06:39;;;;;;;3.95;0.43;;;24.20;99.90;;;;;;5063452;28;20063;-78
2022/01/27 12:11:56;;;;;;;1.38;0.38;;;24.20;99.90;;;;;;5062168;28;20112;-79
2022/01/27 12:14:30;;;;;;;3.45;0.32;;;24.20;99.90;;;;;;5063946;28;20107;-77
2022/01/27 12:17:19;;;;;;;4.07;0.40;;;24.20;99.90;;;;;;5062424;28;20108;-77
2022/01/27 12:20:07;;;;;;;5.00;0.40;;;24.20;99.90;;;;;;5067663;28;20028;-76
2022/01/27 12:22:46;;;;;;;6.25;0.47;;;24.20;99.90;;;;;;5069297;28;20128;-76
2022/01/27 12:25:14;;;;;;;4.53;0.43;;;24.20;99.90;;;;;;5062438;28;20688;-77
2022/01/27 12:27:49;;;;;;;1.95;0.35;;;24.20;99.90;;;;;;5065689;28;20036;-76
2022/01/27 12:30:16;;;;;;;5.72;0.98;;;24.20;99.90;;;;;;5067200;28;20065;-76
2022/01/27 12:32:44;;;;;;;4.05;1.15;;;24.20;99.90;;;;;;5066786;28;20494;-76
2022/01/27 12:35:16;;;;;;;2.97;0.50;;;24.20;99.90;;;;;;5068207;28;20166;-75
2022/01/27 12:37:50;;;;;;;4.70;0.47;;;24.20;99.90;;;;;;5063353;28;20032;-76
2022/01/27 12:40:21;;;;;;;2.88;1.05;;;24.20;99.90;;;;;;5067816;28;20028;-76
2022/01/27 12:42:59;;;;;;;5.45;1.13;;;24.20;99.90;;;;;;5065583;28;20076;-76
2022/01/27 12:45:30;;;;;;;3.35;0.32;;;24.20;99.90;;;;;;5061722;28;20060;-76
2022/01/27 12:48:06;;;;;;;3.65;0.20;;;24.20;99.90;;;;;;5062455;28;20685;-73
2022/01/27 12:50:35;;;;;;;1.33;0.20;;;24.10;99.90;;;;;;5051728;28;20036;-74
2022/01/27 12:53:09;;;;;;;2.25;0.22;;;24.10;99.90;;;;;;5061941;28;20033;-77
2022/01/27 12:55:42;;;;;;;5.35;0.55;;;24.10;99.90;;;;;;5064549;28;20474;-76
2022/01/27 12:58:12;;;;;;;2.85;0.35;;;24.00;99.90;;;;;;5066216;28;20164;-77
2022/01/27 13:00:51;;;;;;;4.13;0.50;;;24.10;99.90;;;;;;5061124;28;20402;-75
2022/01/27 13:03:21;;;;;;;3.83;1.02;;;24.10;99.90;;;;;;5062639;28;20031;-75
2022/01/27 13:05:53;;;;;;;3.30;0.75;;;24.10;99.90;;;;;;5061509;28;20464;-75
2022/01/27 13:08:25;;;;;;;2.80;0.90;;;24.00;99.90;;;;;;5067888;28;20194;-75
2022/01/27 13:10:57;;;;;;;3.65;0.40;;;24.00;99.90;;;;;;5067928;28;20028;-75
2022/01/27 13:13:32;;;;;;;3.75;0.55;;;24.00;99.90;;;;;;5064716;28;20021;-75
2022/01/27 13:16:05;;;;;;;1.35;0.52;;;24.00;99.90;;;;;;5064443;28;20039;-77
2022/01/27 13:18:50;;;;;;;2.13;0.30;;;24.00;99.90;;;;;;5065591;28;20106;-78
2022/01/27 13:21:31;;;;;;;1.85;0.30;;;24.10;99.90;;;;;;5058246;28;20036;-84
2022/01/27 13:24:14;;;;;;;5.50;1.15;;;24.00;99.90;;;;;;5063023;28;20031;-76
2022/01/27 13:26:44;;;;;;;3.90;0.60;;;24.00;99.90;;;;;;5058818;28;20745;-82
2022/01/27 13:29:19;;;;;;;7.68;0.95;;;24.00;99.90;;;;;;5053312;28;20060;-85
2022/01/27 13:31:47;;;;;;;0.90;0.30;;;24.00;99.90;;;;;;5055664;28;20119;-80
2022/01/27 13:34:15;;;;;;;3.28;0.40;;;24.00;99.90;;;;;;5067656;28;20033;-77
2022/01/27 13:37:00;;;;;;;5.45;1.17;;;24.00;99.90;;;;;;5068832;28;20024;-77
2022/01/27 13:41:55;;;;;;;6.65;1.63;;;24.00;99.90;;;;;;5050486;28;20469;-75
2022/01/27 13:44:22;;;;;;;2.17;0.43;;;24.00;99.90;;;;;;5051424;28;20112;-76
2022/01/27 13:46:55;;;;;;;4.60;0.98;;;24.00;99.90;;;;;;5054516;28;20383;-77
2022/01/27 13:49:29;;;;;;;5.50;0.52;;;23.90;99.90;;;;;;5055281;28;20081;-77
2022/01/27 13:52:03;;;;;;;7.68;0.60;;;23.90;99.90;;;;;;5062561;28;20037;-77
2022/01/27 13:54:35;;;;;;;5.53;0.52;;;23.90;99.90;;;;;;5064007;28;20029;-76
2022/01/27 13:57:17;;;;;;;4.75;1.25;;;23.90;99.90;;;;;;5063297;28;20055;-76